createdAt,value
2018-08-20T00:00:14.498Z,4.30
2018-08-20T00:05:06.141Z,5.00
2018-08-20T00:09:57.865Z,4.83
2018-08-20T00:14:49.509Z,4.13
2018-08-20T00:19:41.254Z,5.27
2018-08-20T00:24:32.882Z,4.20
2018-08-20T00:29:24.608Z,5.30
2018-08-20T00:34:15.629Z,4.20
2018-08-20T00:39:06.632Z,4.23
2018-08-20T00:43:57.567Z,3.97
2018-08-20T00:48:49.286Z,4.27
2018-08-20T00:53:40.186Z,4.30
2018-08-20T00:58:31.117Z,4.20
2018-08-20T01:03:22.032Z,4.07
2018-08-20T01:08:12.957Z,4.23
2018-08-20T01:13:03.844Z,4.97
2018-08-20T01:17:54.772Z,4.77
2018-08-20T01:22:45.684Z,4.70
2018-08-20T01:27:36.611Z,4.47
2018-08-20T01:32:27.552Z,4.57
2018-08-20T01:37:18.453Z,4.53
2018-08-20T01:42:09.401Z,4.00
2018-08-20T01:47:01.233Z,4.50
2018-08-20T01:51:52.146Z,5.20
2018-08-20T01:56:43.069Z,4.37
2018-08-20T02:01:33.988Z,4.63
2018-08-20T02:06:24.898Z,4.97
2018-08-20T02:11:15.820Z,4.67
2018-08-20T02:16:06.715Z,5.10
2018-08-20T02:20:57.696Z,4.80
2018-08-20T02:25:49.404Z,4.50
2018-08-20T02:30:40.313Z,4.50
2018-08-20T02:35:31.236Z,4.40
2018-08-20T02:40:23.682Z,4.93
2018-08-20T02:45:14.594Z,5.10
2018-08-20T02:50:05.489Z,4.73
2018-08-20T02:54:56.465Z,5.40
2018-08-20T02:59:47.464Z,5.07
2018-08-20T03:04:38.413Z,5.80
2018-08-20T03:09:29.377Z,5.00
2018-08-20T03:14:20.309Z,4.97
2018-08-20T03:19:11.241Z,4.40
2018-08-20T03:24:02.228Z,5.17
2018-08-20T03:28:53.113Z,5.50
2018-08-20T03:33:44.785Z,4.67
2018-08-20T03:38:35.698Z,5.27
2018-08-20T03:43:26.621Z,5.23
2018-08-20T03:48:17.585Z,4.60
2018-08-20T03:53:08.493Z,5.03
2018-08-20T03:57:59.409Z,5.37
2018-08-20T04:02:50.324Z,4.60
2018-08-20T04:07:41.255Z,5.37
2018-08-20T04:12:32.177Z,6.30
2018-08-20T04:17:24.620Z,5.83
2018-08-20T04:22:15.521Z,5.77
2018-08-20T04:27:06.465Z,5.67
2018-08-20T04:31:57.390Z,5.27
2018-08-20T04:36:48.323Z,5.40
2018-08-20T04:41:39.321Z,5.70
2018-08-20T04:46:30.336Z,5.63
2018-08-20T04:51:21.431Z,5.60
2018-08-20T04:56:12.272Z,4.63
2018-08-20T05:01:03.197Z,5.33
2018-08-20T05:05:54.149Z,4.83
2018-08-20T05:10:45.872Z,5.90
2018-08-20T05:15:37.589Z,5.20
2018-08-20T05:20:28.523Z,8.30
2018-08-20T05:25:20.169Z,8.30
2018-08-20T05:30:11.829Z,8.53
2018-08-20T05:35:02.733Z,8.23
2018-08-20T05:39:54.378Z,6.60
2018-08-20T05:44:46.072Z,7.07
2018-08-20T05:49:37.004Z,7.47
2018-08-20T05:54:27.929Z,6.73
2018-08-20T05:59:18.967Z,6.80
2018-08-20T06:04:10.613Z,6.80
2018-08-20T06:09:02.254Z,8.57
2018-08-20T06:13:53.229Z,7.13
2018-08-20T06:18:44.289Z,7.13
2018-08-20T06:23:35.201Z,6.90
2018-08-20T06:28:26.860Z,7.30
2018-08-20T06:33:17.732Z,7.80
2018-08-20T06:38:08.621Z,7.60
2018-08-20T06:42:59.573Z,8.10
2018-08-20T06:47:50.476Z,9.43
2018-08-20T06:52:41.382Z,8.83
2018-08-20T06:57:32.286Z,8.00
2018-08-20T07:02:23.233Z,8.23
2018-08-20T07:07:14.273Z,8.63
2018-08-20T07:12:05.166Z,8.50
2018-08-20T07:16:56.126Z,8.33
2018-08-20T07:21:47.766Z,8.10
2018-08-20T07:26:39.428Z,8.13
2018-08-20T07:31:30.470Z,7.77
2018-08-20T07:36:21.380Z,7.43
2018-08-20T07:41:12.284Z,7.87
2018-08-20T07:46:03.181Z,8.67
2018-08-20T07:50:54.159Z,7.80
2018-08-20T07:55:45.874Z,7.80
2018-08-20T08:00:36.684Z,7.93
2018-08-20T08:05:27.577Z,7.67
2018-08-20T08:10:18.485Z,11.90
2018-08-20T08:15:10.129Z,6.70
2018-08-20T08:20:01.034Z,7.70
2018-08-20T08:24:53.046Z,8.47
2018-08-20T08:29:43.952Z,7.90
2018-08-20T08:34:34.861Z,7.03
2018-08-20T08:39:25.800Z,7.30
2018-08-20T08:44:16.682Z,6.60
2018-08-20T08:49:07.593Z,6.60
2018-08-20T08:53:58.509Z,7.03
2018-08-20T08:58:49.400Z,6.80
2018-08-20T09:03:41.037Z,5.93
2018-08-20T09:08:32.676Z,5.70
2018-08-20T09:13:24.353Z,5.80
2018-08-20T09:18:15.264Z,6.40
2018-08-20T09:23:06.170Z,5.90
2018-08-20T09:27:57.120Z,5.57
2018-08-20T09:32:48.052Z,5.13
2018-08-20T09:37:38.929Z,4.83
2018-08-20T09:42:29.921Z,4.67
2018-08-20T09:47:21.568Z,7.07
2018-08-20T09:52:13.289Z,5.30
2018-08-20T09:57:04.925Z,4.73
2018-08-20T10:01:56.574Z,5.80
2018-08-20T10:06:48.212Z,5.40
2018-08-20T10:11:39.861Z,5.30
2018-08-20T10:16:30.796Z,4.40
2018-08-20T10:21:21.694Z,4.60
2018-08-20T10:26:12.594Z,4.70
2018-08-20T10:31:04.250Z,4.63
2018-08-20T10:35:55.144Z,5.60
2018-08-20T10:40:46.807Z,4.03
2018-08-20T10:45:37.713Z,4.70
2018-08-20T10:50:28.616Z,4.43
2018-08-20T10:55:20.277Z,4.60
2018-08-20T11:00:11.172Z,4.17
2018-08-20T11:05:02.821Z,4.70
2018-08-20T11:09:53.720Z,4.10
2018-08-20T11:14:45.360Z,4.17
2018-08-20T11:19:37.022Z,4.07
2018-08-20T11:24:27.954Z,3.67
2018-08-20T11:29:18.854Z,3.87
2018-08-20T11:34:09.741Z,3.80
2018-08-20T11:39:01.378Z,3.20
2018-08-20T11:43:53.026Z,3.67
2018-08-20T11:48:44.665Z,3.50
2018-08-20T11:53:36.314Z,2.60
2018-08-20T11:58:27.217Z,2.70
2018-08-20T12:03:18.849Z,2.70
2018-08-20T12:08:11.105Z,2.97
2018-08-20T12:13:02.740Z,2.73
2018-08-20T12:17:53.652Z,2.90
2018-08-20T12:22:45.305Z,2.90
2018-08-20T12:27:36.223Z,3.37
2018-08-20T12:32:27.137Z,2.67
2018-08-20T12:37:18.040Z,2.40
2018-08-20T12:42:09.687Z,2.50
2018-08-20T12:47:00.593Z,2.97
2018-08-20T12:51:52.285Z,2.30
2018-08-20T12:56:43.197Z,4.03
2018-08-20T13:01:34.104Z,2.80
2018-08-20T13:06:25.037Z,2.90
2018-08-20T13:11:15.945Z,2.93
2018-08-20T13:16:07.081Z,2.20
2018-08-20T13:20:58.583Z,2.37
2018-08-20T13:25:49.494Z,2.83
2018-08-20T13:30:40.407Z,2.50
2018-08-20T13:35:32.027Z,2.30
2018-08-20T13:40:23.672Z,2.60
2018-08-20T13:45:15.333Z,4.30
2018-08-20T13:50:06.256Z,2.60
2018-08-20T13:54:57.164Z,2.23
2018-08-20T13:59:48.083Z,2.73
2018-08-20T14:04:39.005Z,3.20
2018-08-20T14:09:29.924Z,2.23
2018-08-20T14:14:20.842Z,2.20
2018-08-20T14:19:11.749Z,2.50
2018-08-20T14:24:02.637Z,2.27
2018-08-20T14:28:53.545Z,2.70
2018-08-20T14:33:44.445Z,2.60
2018-08-20T14:38:35.368Z,2.40
2018-08-20T14:43:26.293Z,2.17
2018-08-20T14:48:17.262Z,2.50
2018-08-20T14:53:08.153Z,2.50
2018-08-20T14:57:59.104Z,5.70
2018-08-20T15:02:50.193Z,2.50
2018-08-20T15:07:41.861Z,2.07
2018-08-20T15:12:32.773Z,2.53
2018-08-20T15:17:23.686Z,2.33
2018-08-20T15:22:15.357Z,2.37
2018-08-20T15:27:06.245Z,2.50
2018-08-20T15:31:57.163Z,2.60
2018-08-20T15:36:48.068Z,2.73
2018-08-20T15:41:39.773Z,2.60
2018-08-20T15:46:30.698Z,2.33
2018-08-20T15:51:21.600Z,2.17
2018-08-20T15:56:12.526Z,2.27
2018-08-20T16:01:03.445Z,2.00
2018-08-20T16:05:54.342Z,2.30
2018-08-20T16:10:45.249Z,2.53
2018-08-20T16:15:36.151Z,2.40
2018-08-20T16:20:27.123Z,2.10
2018-08-20T16:25:18.029Z,2.20
2018-08-20T16:30:08.925Z,2.17
2018-08-20T16:34:59.826Z,2.43
2018-08-20T16:39:50.721Z,2.07
2018-08-20T16:44:42.422Z,1.90
2018-08-20T16:49:33.348Z,2.23
2018-08-20T16:54:24.249Z,2.53
2018-08-20T16:59:15.193Z,5.40
2018-08-20T17:04:06.837Z,2.27
2018-08-20T17:08:57.741Z,2.23
2018-08-20T17:13:49.408Z,2.40
2018-08-20T17:18:41.040Z,6.93
2018-08-20T17:23:32.018Z,2.57
2018-08-20T17:28:22.971Z,4.80
2018-08-20T17:33:14.709Z,2.37
2018-08-20T17:38:06.417Z,2.40
2018-08-20T17:42:57.326Z,2.40
2018-08-20T17:47:48.274Z,2.53
2018-08-20T17:52:39.278Z,3.03
2018-08-20T17:57:30.187Z,2.30
2018-08-20T18:02:21.097Z,2.63
2018-08-20T18:07:12.045Z,2.27
2018-08-20T18:12:03.058Z,2.53
2018-08-20T18:16:53.977Z,3.00
2018-08-20T18:21:44.946Z,4.90
2018-08-20T18:26:36.598Z,2.30
2018-08-20T18:31:27.544Z,2.50
2018-08-20T18:36:18.526Z,2.23
2018-08-20T18:41:09.629Z,2.87
2018-08-20T18:46:01.365Z,2.50
2018-08-20T18:50:53.068Z,2.67
2018-08-20T18:55:44.026Z,2.30
2018-08-20T19:00:35.058Z,2.33
2018-08-20T19:05:25.988Z,2.40
2018-08-20T19:10:17.045Z,2.97
2018-08-20T19:15:20.453Z,2.53
2018-08-20T19:20:11.518Z,2.97
2018-08-20T19:25:03.156Z,3.00
2018-08-20T19:29:54.077Z,2.97
2018-08-20T19:34:45.843Z,2.90
2018-08-20T19:39:37.446Z,2.77
2018-08-20T19:44:29.147Z,2.77
2018-08-20T19:49:20.045Z,2.60
2018-08-20T19:54:10.969Z,2.50
2018-08-20T19:59:01.898Z,2.60
2018-08-20T20:03:52.796Z,2.60
2018-08-20T20:08:43.732Z,2.50
2018-08-20T20:13:34.642Z,1.97
2018-08-20T20:18:25.672Z,2.83
2018-08-20T20:23:16.627Z,2.67
2018-08-20T20:28:07.611Z,2.40
2018-08-20T20:32:58.517Z,2.50
2018-08-20T20:37:49.449Z,2.03
2018-08-20T20:42:40.372Z,2.20
2018-08-20T20:47:31.285Z,2.23
2018-08-20T20:52:22.208Z,2.03
2018-08-20T20:57:13.105Z,1.97
2018-08-20T21:02:04.068Z,1.63
2018-08-20T21:06:55.722Z,1.77
2018-08-20T21:11:47.420Z,2.23
2018-08-20T21:16:38.520Z,2.03
2018-08-20T21:21:29.462Z,1.67
2018-08-20T21:26:20.348Z,1.90
2018-08-20T21:31:11.296Z,1.80
2018-08-20T21:36:02.223Z,2.13
2018-08-20T21:40:53.163Z,1.43
2018-08-20T21:45:44.809Z,2.10
2018-08-20T21:50:36.500Z,1.30
2018-08-20T21:55:27.401Z,1.50
2018-08-20T22:00:18.304Z,1.40
2018-08-20T22:05:09.266Z,1.37
2018-08-20T22:10:00.191Z,1.60
2018-08-20T22:14:51.097Z,1.80
2018-08-20T22:19:42.016Z,1.33
2018-08-20T22:24:32.928Z,1.80
2018-08-20T22:29:23.883Z,1.97
2018-08-20T22:34:15.577Z,0.97
2018-08-20T22:39:06.489Z,1.30
2018-08-20T22:43:57.424Z,0.90
2018-08-20T22:48:48.362Z,1.20
2018-08-20T22:53:39.257Z,1.40
2018-08-20T22:58:30.202Z,1.00
2018-08-20T23:03:21.132Z,0.97
2018-08-20T23:08:12.141Z,1.33
2018-08-20T23:13:03.154Z,1.10
2018-08-20T23:17:54.073Z,1.10
2018-08-20T23:22:46.574Z,1.20
2018-08-20T23:27:37.557Z,0.90
2018-08-20T23:32:28.481Z,1.10
2018-08-20T23:37:19.520Z,1.07
2018-08-20T23:42:11.161Z,0.90
2018-08-20T23:47:02.847Z,0.93
2018-08-20T23:51:53.773Z,2.23
2018-08-20T23:56:44.685Z,0.83
